sensor_id;sensor_type;location;lat;lon;timestamp;P1;durP1;ratioP1;P2;durP2;ratioP2
15116;SDS011;7659;51.038;13.786;2023-02-22T00:00:55;9.60;;;5.80;;
15116;SDS011;7659;51.038;13.786;2023-02-22T00:03:24;9.38;;;5.32;;
15116;SDS011;7659;51.038;13.786;2023-02-22T00:05:51;9.32;;;5.68;;
15116;SDS011;7659;51.038;13.786;2023-02-22T00:08:18;11.57;;;6.18;;
15116;SDS011;7659;51.038;13.786;2023-02-22T00:10:44;10.38;;;5.97;;
15116;SDS011;7659;51.038;13.786;2023-02-22T00:13:10;10.85;;;6.38;;
15116;SDS011;7659;51.038;13.786;2023-02-22T00:15:37;9.20;;;5.97;;
15116;SDS011;7659;51.038;13.786;2023-02-22T00:18:06;12.98;;;5.75;;
15116;SDS011;7659;51.038;13.786;2023-02-22T00:20:31;9.45;;;6.22;;
15116;SDS011;7659;51.038;13.786;2023-02-22T00:22:57;9.02;;;6.13;;
15116;SDS011;7659;51.038;13.786;2023-02-22T00:25:25;9.13;;;5.55;;
15116;SDS011;7659;51.038;13.786;2023-02-22T00:27:51;11.55;;;6.80;;
15116;SDS011;7659;51.038;13.786;2023-02-22T00:32:44;7.93;;;5.95;;
15116;SDS011;7659;51.038;13.786;2023-02-22T00:35:12;8.30;;;5.72;;
15116;SDS011;7659;51.038;13.786;2023-02-22T00:37:38;8.80;;;5.65;;
15116;SDS011;7659;51.038;13.786;2023-02-22T00:40:10;7.53;;;5.80;;
15116;SDS011;7659;51.038;13.786;2023-02-22T00:42:36;11.95;;;5.95;;
15116;SDS011;7659;51.038;13.786;2023-02-22T00:45:03;9.50;;;6.07;;
15116;SDS011;7659;51.038;13.786;2023-02-22T00:47:28;8.55;;;5.85;;
15116;SDS011;7659;51.038;13.786;2023-02-22T00:49:54;8.13;;;5.65;;
15116;SDS011;7659;51.038;13.786;2023-02-22T00:52:20;9.18;;;6.57;;
15116;SDS011;7659;51.038;13.786;2023-02-22T00:54:45;9.82;;;6.07;;
15116;SDS011;7659;51.038;13.786;2023-02-22T00:57:11;8.48;;;6.35;;
15116;SDS011;7659;51.038;13.786;2023-02-22T00:59:37;9.32;;;6.30;;
15116;SDS011;7659;51.038;13.786;2023-02-22T01:02:02;10.38;;;6.10;;
15116;SDS011;7659;51.038;13.786;2023-02-22T01:04:28;11.07;;;6.60;;
15116;SDS011;7659;51.038;13.786;2023-02-22T01:06:53;12.25;;;6.47;;
15116;SDS011;7659;51.038;13.786;2023-02-22T01:09:20;8.82;;;5.70;;
15116;SDS011;7659;51.038;13.786;2023-02-22T01:11:46;9.57;;;6.15;;
15116;SDS011;7659;51.038;13.786;2023-02-22T01:14:11;10.70;;;5.90;;
15116;SDS011;7659;51.038;13.786;2023-02-22T01:16:37;10.07;;;6.10;;
15116;SDS011;7659;51.038;13.786;2023-02-22T01:19:02;6.70;;;4.85;;
15116;SDS011;7659;51.038;13.786;2023-02-22T01:21:28;7.03;;;5.45;;
15116;SDS011;7659;51.038;13.786;2023-02-22T01:23:54;10.85;;;6.30;;
15116;SDS011;7659;51.038;13.786;2023-02-22T01:26:20;11.00;;;6.18;;
15116;SDS011;7659;51.038;13.786;2023-02-22T01:28:45;10.40;;;6.32;;
15116;SDS011;7659;51.038;13.786;2023-02-22T01:31:11;8.00;;;5.35;;
15116;SDS011;7659;51.038;13.786;2023-02-22T01:33:37;9.27;;;6.22;;
15116;SDS011;7659;51.038;13.786;2023-02-22T01:36:03;9.45;;;5.40;;
15116;SDS011;7659;51.038;13.786;2023-02-22T01:38:29;8.75;;;5.60;;
15116;SDS011;7659;51.038;13.786;2023-02-22T01:40:54;8.20;;;5.18;;
15116;SDS011;7659;51.038;13.786;2023-02-22T01:43:25;10.10;;;5.30;;
15116;SDS011;7659;51.038;13.786;2023-02-22T01:50:58;10.52;;;5.70;;
15116;SDS011;7659;51.038;13.786;2023-02-22T01:53:26;8.38;;;5.90;;
15116;SDS011;7659;51.038;13.786;2023-02-22T01:55:52;9.38;;;5.90;;
15116;SDS011;7659;51.038;13.786;2023-02-22T01:58:19;8.98;;;5.82;;
15116;SDS011;7659;51.038;13.786;2023-02-22T02:00:46;10.27;;;6.68;;
15116;SDS011;7659;51.038;13.786;2023-02-22T02:03:13;9.38;;;6.03;;
15116;SDS011;7659;51.038;13.786;2023-02-22T02:05:40;8.18;;;6.22;;
15116;SDS011;7659;51.038;13.786;2023-02-22T02:08:11;10.48;;;5.95;;
15116;SDS011;7659;51.038;13.786;2023-02-22T02:10:40;8.73;;;6.30;;
15116;SDS011;7659;51.038;13.786;2023-02-22T02:13:07;8.10;;;5.88;;
15116;SDS011;7659;51.038;13.786;2023-02-22T02:15:32;10.45;;;5.63;;
15116;SDS011;7659;51.038;13.786;2023-02-22T02:18:03;7.82;;;5.63;;
15116;SDS011;7659;51.038;13.786;2023-02-22T02:20:36;10.80;;;6.47;;
15116;SDS011;7659;51.038;13.786;2023-02-22T02:36:02;10.75;;;6.82;;
15116;SDS011;7659;51.038;13.786;2023-02-22T02:38:40;11.77;;;7.10;;
15116;SDS011;7659;51.038;13.786;2023-02-22T02:43:37;11.70;;;7.50;;
15116;SDS011;7659;51.038;13.786;2023-02-22T02:48:33;9.68;;;6.43;;
15116;SDS011;7659;51.038;13.786;2023-02-22T02:50:59;12.20;;;6.60;;
15116;SDS011;7659;51.038;13.786;2023-02-22T02:53:34;11.80;;;7.18;;
15116;SDS011;7659;51.038;13.786;2023-02-22T02:56:00;11.68;;;7.38;;
15116;SDS011;7659;51.038;13.786;2023-02-22T02:58:26;13.07;;;7.70;;
15116;SDS011;7659;51.038;13.786;2023-02-22T03:00:53;10.07;;;7.32;;
15116;SDS011;7659;51.038;13.786;2023-02-22T03:11:06;10.60;;;6.53;;
15116;SDS011;7659;51.038;13.786;2023-02-22T03:13:49;9.48;;;6.68;;
15116;SDS011;7659;51.038;13.786;2023-02-22T03:21:22;11.30;;;7.50;;
15116;SDS011;7659;51.038;13.786;2023-02-22T03:26:40;13.27;;;7.80;;
15116;SDS011;7659;51.038;13.786;2023-02-22T03:29:07;12.77;;;8.07;;
15116;SDS011;7659;51.038;13.786;2023-02-22T03:31:36;13.90;;;8.40;;
15116;SDS011;7659;51.038;13.786;2023-02-22T03:34:05;14.68;;;8.48;;
15116;SDS011;7659;51.038;13.786;2023-02-22T03:36:36;16.08;;;9.38;;
15116;SDS011;7659;51.038;13.786;2023-02-22T03:39:03;11.77;;;9.48;;
15116;SDS011;7659;51.038;13.786;2023-02-22T03:41:30;13.30;;;8.77;;
15116;SDS011;7659;51.038;13.786;2023-02-22T03:44:03;16.35;;;8.77;;
15116;SDS011;7659;51.038;13.786;2023-02-22T03:46:29;14.00;;;8.90;;
15116;SDS011;7659;51.038;13.786;2023-02-22T03:49:09;13.68;;;9.25;;
15116;SDS011;7659;51.038;13.786;2023-02-22T03:51:38;13.93;;;9.30;;
15116;SDS011;7659;51.038;13.786;2023-02-22T03:54:04;15.95;;;8.95;;
15116;SDS011;7659;51.038;13.786;2023-02-22T03:56:38;15.52;;;9.45;;
15116;SDS011;7659;51.038;13.786;2023-02-22T03:59:12;20.45;;;9.20;;
15116;SDS011;7659;51.038;13.786;2023-02-22T04:01:38;13.68;;;8.65;;
15116;SDS011;7659;51.038;13.786;2023-02-22T04:04:04;13.70;;;9.05;;
15116;SDS011;7659;51.038;13.786;2023-02-22T04:06:31;14.35;;;9.57;;
15116;SDS011;7659;51.038;13.786;2023-02-22T04:08:58;13.15;;;9.23;;
15116;SDS011;7659;51.038;13.786;2023-02-22T04:11:24;18.95;;;9.55;;
15116;SDS011;7659;51.038;13.786;2023-02-22T04:13:49;13.63;;;8.88;;
15116;SDS011;7659;51.038;13.786;2023-02-22T04:16:15;15.05;;;9.40;;
15116;SDS011;7659;51.038;13.786;2023-02-22T04:18:40;13.98;;;8.27;;
15116;SDS011;7659;51.038;13.786;2023-02-22T04:21:06;13.35;;;9.15;;
15116;SDS011;7659;51.038;13.786;2023-02-22T04:23:40;12.38;;;8.98;;
15116;SDS011;7659;51.038;13.786;2023-02-22T04:26:06;12.90;;;8.57;;
15116;SDS011;7659;51.038;13.786;2023-02-22T04:28:32;12.23;;;8.05;;
15116;SDS011;7659;51.038;13.786;2023-02-22T04:31:07;15.55;;;9.02;;
15116;SDS011;7659;51.038;13.786;2023-02-22T04:33:32;12.55;;;8.55;;
15116;SDS011;7659;51.038;13.786;2023-02-22T04:35:58;15.23;;;8.40;;
15116;SDS011;7659;51.038;13.786;2023-02-22T04:38:24;16.10;;;8.13;;
15116;SDS011;7659;51.038;13.786;2023-02-22T04:40:52;12.80;;;8.20;;
15116;SDS011;7659;51.038;13.786;2023-02-22T04:43:19;10.73;;;8.20;;
15116;SDS011;7659;51.038;13.786;2023-02-22T04:45:45;12.27;;;7.65;;
15116;SDS011;7659;51.038;13.786;2023-02-22T04:48:10;13.95;;;8.68;;
15116;SDS011;7659;51.038;13.786;2023-02-22T04:50:36;14.77;;;8.88;;
15116;SDS011;7659;51.038;13.786;2023-02-22T04:53:02;14.75;;;8.70;;
15116;SDS011;7659;51.038;13.786;2023-02-22T04:55:27;13.43;;;9.15;;
15116;SDS011;7659;51.038;13.786;2023-02-22T04:57:54;13.93;;;8.48;;
15116;SDS011;7659;51.038;13.786;2023-02-22T05:00:20;13.57;;;8.85;;
15116;SDS011;7659;51.038;13.786;2023-02-22T05:02:50;14.77;;;8.07;;
15116;SDS011;7659;51.038;13.786;2023-02-22T05:05:19;15.25;;;8.73;;
15116;SDS011;7659;51.038;13.786;2023-02-22T05:07:46;14.98;;;9.00;;
15116;SDS011;7659;51.038;13.786;2023-02-22T05:10:12;13.68;;;8.50;;
15116;SDS011;7659;51.038;13.786;2023-02-22T05:12:37;15.40;;;10.02;;
15116;SDS011;7659;51.038;13.786;2023-02-22T05:15:04;14.63;;;8.50;;
15116;SDS011;7659;51.038;13.786;2023-02-22T05:17:30;17.67;;;9.25;;
15116;SDS011;7659;51.038;13.786;2023-02-22T05:19:55;13.18;;;8.43;;
15116;SDS011;7659;51.038;13.786;2023-02-22T05:22:21;14.13;;;8.23;;
15116;SDS011;7659;51.038;13.786;2023-02-22T05:24:46;14.88;;;8.45;;
15116;SDS011;7659;51.038;13.786;2023-02-22T05:27:11;12.50;;;8.57;;
15116;SDS011;7659;51.038;13.786;2023-02-22T05:29:37;14.63;;;8.63;;
15116;SDS011;7659;51.038;13.786;2023-02-22T05:32:03;16.60;;;8.20;;
15116;SDS011;7659;51.038;13.786;2023-02-22T05:34:28;15.05;;;8.38;;
15116;SDS011;7659;51.038;13.786;2023-02-22T05:36:55;15.68;;;8.25;;
15116;SDS011;7659;51.038;13.786;2023-02-22T05:39:20;14.48;;;8.40;;
15116;SDS011;7659;51.038;13.786;2023-02-22T05:41:46;13.88;;;8.15;;
15116;SDS011;7659;51.038;13.786;2023-02-22T05:44:11;13.65;;;7.53;;
15116;SDS011;7659;51.038;13.786;2023-02-22T05:46:36;12.50;;;8.65;;
15116;SDS011;7659;51.038;13.786;2023-02-22T05:49:02;20.13;;;9.18;;
15116;SDS011;7659;51.038;13.786;2023-02-22T05:51:27;13.90;;;9.20;;
15116;SDS011;7659;51.038;13.786;2023-02-22T05:53:53;16.58;;;8.63;;
15116;SDS011;7659;51.038;13.786;2023-02-22T05:56:19;14.45;;;8.32;;
15116;SDS011;7659;51.038;13.786;2023-02-22T05:58:45;15.63;;;8.35;;
15116;SDS011;7659;51.038;13.786;2023-02-22T06:01:11;18.48;;;8.75;;
15116;SDS011;7659;51.038;13.786;2023-02-22T06:03:36;15.95;;;8.27;;
15116;SDS011;7659;51.038;13.786;2023-02-22T06:06:02;17.15;;;8.32;;
15116;SDS011;7659;51.038;13.786;2023-02-22T06:08:28;15.80;;;8.52;;
15116;SDS011;7659;51.038;13.786;2023-02-22T06:10:54;14.43;;;8.75;;
15116;SDS011;7659;51.038;13.786;2023-02-22T06:13:19;15.23;;;8.00;;
15116;SDS011;7659;51.038;13.786;2023-02-22T06:15:45;15.82;;;8.70;;
15116;SDS011;7659;51.038;13.786;2023-02-22T06:18:10;13.90;;;7.95;;
15116;SDS011;7659;51.038;13.786;2023-02-22T06:20:36;18.38;;;8.32;;
15116;SDS011;7659;51.038;13.786;2023-02-22T06:23:01;13.05;;;8.48;;
15116;SDS011;7659;51.038;13.786;2023-02-22T06:25:27;15.07;;;8.65;;
15116;SDS011;7659;51.038;13.786;2023-02-22T06:27:55;14.90;;;7.97;;
15116;SDS011;7659;51.038;13.786;2023-02-22T06:30:21;15.45;;;8.35;;
15116;SDS011;7659;51.038;13.786;2023-02-22T06:32:47;18.20;;;8.95;;
15116;SDS011;7659;51.038;13.786;2023-02-22T06:35:13;21.15;;;10.55;;
15116;SDS011;7659;51.038;13.786;2023-02-22T06:37:39;14.88;;;10.05;;
15116;SDS011;7659;51.038;13.786;2023-02-22T06:40:04;20.70;;;9.93;;
15116;SDS011;7659;51.038;13.786;2023-02-22T06:42:30;17.00;;;9.90;;
15116;SDS011;7659;51.038;13.786;2023-02-22T06:44:55;18.67;;;10.48;;
15116;SDS011;7659;51.038;13.786;2023-02-22T06:47:21;18.70;;;9.73;;
15116;SDS011;7659;51.038;13.786;2023-02-22T06:49:56;18.42;;;10.27;;
15116;SDS011;7659;51.038;13.786;2023-02-22T06:52:22;17.88;;;9.80;;
15116;SDS011;7659;51.038;13.786;2023-02-22T06:54:48;19.48;;;10.40;;
15116;SDS011;7659;51.038;13.786;2023-02-22T06:57:14;19.50;;;10.23;;
15116;SDS011;7659;51.038;13.786;2023-02-22T06:59:39;17.42;;;10.13;;
15116;SDS011;7659;51.038;13.786;2023-02-22T07:02:05;16.50;;;10.15;;
15116;SDS011;7659;51.038;13.786;2023-02-22T07:04:30;20.33;;;10.32;;
15116;SDS011;7659;51.038;13.786;2023-02-22T07:06:56;18.40;;;10.23;;
15116;SDS011;7659;51.038;13.786;2023-02-22T07:09:21;18.38;;;10.55;;
15116;SDS011;7659;51.038;13.786;2023-02-22T07:11:47;16.77;;;9.88;;
15116;SDS011;7659;51.038;13.786;2023-02-22T07:14:14;16.83;;;9.75;;
15116;SDS011;7659;51.038;13.786;2023-02-22T07:16:40;16.38;;;9.65;;
15116;SDS011;7659;51.038;13.786;2023-02-22T07:19:05;21.00;;;10.50;;
15116;SDS011;7659;51.038;13.786;2023-02-22T07:21:31;17.27;;;10.60;;
15116;SDS011;7659;51.038;13.786;2023-02-22T07:23:56;17.75;;;10.43;;
15116;SDS011;7659;51.038;13.786;2023-02-22T07:26:23;16.85;;;10.38;;
15116;SDS011;7659;51.038;13.786;2023-02-22T07:28:49;15.73;;;9.80;;
15116;SDS011;7659;51.038;13.786;2023-02-22T07:31:14;14.93;;;10.20;;
15116;SDS011;7659;51.038;13.786;2023-02-22T07:33:40;17.85;;;10.52;;
15116;SDS011;7659;51.038;13.786;2023-02-22T07:36:06;16.70;;;10.43;;
15116;SDS011;7659;51.038;13.786;2023-02-22T07:38:31;16.17;;;10.27;;
15116;SDS011;7659;51.038;13.786;2023-02-22T07:40:57;18.50;;;11.07;;
15116;SDS011;7659;51.038;13.786;2023-02-22T07:43:23;19.15;;;10.57;;
15116;SDS011;7659;51.038;13.786;2023-02-22T07:45:53;16.38;;;10.10;;
15116;SDS011;7659;51.038;13.786;2023-02-22T07:48:19;15.40;;;9.80;;
15116;SDS011;7659;51.038;13.786;2023-02-22T07:50:45;14.73;;;9.77;;
15116;SDS011;7659;51.038;13.786;2023-02-22T07:53:11;19.45;;;10.27;;
15116;SDS011;7659;51.038;13.786;2023-02-22T07:55:37;13.63;;;9.50;;
15116;SDS011;7659;51.038;13.786;2023-02-22T07:58:04;18.58;;;10.70;;
15116;SDS011;7659;51.038;13.786;2023-02-22T08:00:31;17.55;;;10.18;;
15116;SDS011;7659;51.038;13.786;2023-02-22T08:03:01;13.35;;;9.30;;
15116;SDS011;7659;51.038;13.786;2023-02-22T08:05:27;16.90;;;9.35;;
15116;SDS011;7659;51.038;13.786;2023-02-22T08:07:53;14.00;;;9.40;;
15116;SDS011;7659;51.038;13.786;2023-02-22T08:10:20;19.35;;;11.00;;
15116;SDS011;7659;51.038;13.786;2023-02-22T08:12:46;16.40;;;10.20;;
15116;SDS011;7659;51.038;13.786;2023-02-22T08:15:18;15.57;;;9.98;;
15116;SDS011;7659;51.038;13.786;2023-02-22T08:17:44;19.45;;;10.98;;
15116;SDS011;7659;51.038;13.786;2023-02-22T08:20:09;17.83;;;10.02;;
15116;SDS011;7659;51.038;13.786;2023-02-22T08:22:35;16.95;;;10.00;;
15116;SDS011;7659;51.038;13.786;2023-02-22T08:25:00;15.50;;;9.98;;
15116;SDS011;7659;51.038;13.786;2023-02-22T08:27:26;18.05;;;10.48;;
15116;SDS011;7659;51.038;13.786;2023-02-22T08:29:52;22.00;;;10.38;;
15116;SDS011;7659;51.038;13.786;2023-02-22T08:32:18;19.05;;;10.30;;
15116;SDS011;7659;51.038;13.786;2023-02-22T08:34:44;14.70;;;10.63;;
15116;SDS011;7659;51.038;13.786;2023-02-22T08:37:09;20.83;;;11.10;;
15116;SDS011;7659;51.038;13.786;2023-02-22T08:39:35;19.45;;;11.02;;
15116;SDS011;7659;51.038;13.786;2023-02-22T08:42:00;21.65;;;11.82;;
15116;SDS011;7659;51.038;13.786;2023-02-22T08:44:26;19.17;;;10.75;;
15116;SDS011;7659;51.038;13.786;2023-02-22T08:46:51;21.50;;;11.85;;
15116;SDS011;7659;51.038;13.786;2023-02-22T08:49:17;21.20;;;11.40;;
15116;SDS011;7659;51.038;13.786;2023-02-22T08:51:42;20.08;;;11.00;;
15116;SDS011;7659;51.038;13.786;2023-02-22T08:54:08;18.15;;;11.27;;
15116;SDS011;7659;51.038;13.786;2023-02-22T08:56:33;18.83;;;11.63;;
15116;SDS011;7659;51.038;13.786;2023-02-22T08:58:58;20.30;;;12.80;;
15116;SDS011;7659;51.038;13.786;2023-02-22T09:01:24;19.42;;;12.45;;
15116;SDS011;7659;51.038;13.786;2023-02-22T09:03:50;18.63;;;12.13;;
15116;SDS011;7659;51.038;13.786;2023-02-22T09:06:16;61.72;;;14.70;;
15116;SDS011;7659;51.038;13.786;2023-02-22T09:08:42;39.67;;;14.85;;
15116;SDS011;7659;51.038;13.786;2023-02-22T09:11:07;52.95;;;14.38;;
15116;SDS011;7659;51.038;13.786;2023-02-22T09:13:33;70.43;;;17.25;;
15116;SDS011;7659;51.038;13.786;2023-02-22T09:15:58;71.43;;;17.33;;
15116;SDS011;7659;51.038;13.786;2023-02-22T09:18:25;94.65;;;17.98;;
15116;SDS011;7659;51.038;13.786;2023-02-22T09:20:51;84.68;;;17.15;;
15116;SDS011;7659;51.038;13.786;2023-02-22T09:23:16;181.20;;;21.80;;
15116;SDS011;7659;51.038;13.786;2023-02-22T09:25:42;32.25;;;16.23;;
15116;SDS011;7659;51.038;13.786;2023-02-22T09:28:07;88.72;;;17.35;;
15116;SDS011;7659;51.038;13.786;2023-02-22T09:30:33;64.38;;;16.40;;
15116;SDS011;7659;51.038;13.786;2023-02-22T09:33:00;126.32;;;17.63;;
15116;SDS011;7659;51.038;13.786;2023-02-22T09:35:26;26.77;;;14.27;;
15116;SDS011;7659;51.038;13.786;2023-02-22T09:37:52;25.40;;;13.77;;
15116;SDS011;7659;51.038;13.786;2023-02-22T09:40:18;25.20;;;14.90;;
15116;SDS011;7659;51.038;13.786;2023-02-22T09:42:58;22.80;;;14.63;;
15116;SDS011;7659;51.038;13.786;2023-02-22T09:45:50;26.35;;;16.27;;
15116;SDS011;7659;51.038;13.786;2023-02-22T09:48:13;28.58;;;14.60;;
15116;SDS011;7659;51.038;13.786;2023-02-22T09:50:40;24.10;;;13.60;;
15116;SDS011;7659;51.038;13.786;2023-02-22T09:53:22;30.98;;;13.70;;
15116;SDS011;7659;51.038;13.786;2023-02-22T09:55:54;30.90;;;15.10;;
15116;SDS011;7659;51.038;13.786;2023-02-22T09:58:35;27.35;;;14.15;;
15116;SDS011;7659;51.038;13.786;2023-02-22T10:01:17;18.45;;;12.80;;
15116;SDS011;7659;51.038;13.786;2023-02-22T10:03:48;19.73;;;12.02;;
15116;SDS011;7659;51.038;13.786;2023-02-22T10:06:15;19.63;;;11.95;;
15116;SDS011;7659;51.038;13.786;2023-02-22T10:08:41;18.25;;;11.98;;
15116;SDS011;7659;51.038;13.786;2023-02-22T10:13:45;18.15;;;11.38;;
15116;SDS011;7659;51.038;13.786;2023-02-22T10:26:52;22.50;;;12.40;;
15116;SDS011;7659;51.038;13.786;2023-02-22T10:31:50;19.33;;;10.45;;
15116;SDS011;7659;51.038;13.786;2023-02-22T10:34:18;18.35;;;10.73;;
15116;SDS011;7659;51.038;13.786;2023-02-22T10:36:46;14.75;;;10.20;;
15116;SDS011;7659;51.038;13.786;2023-02-22T10:41:44;15.15;;;9.20;;
15116;SDS011;7659;51.038;13.786;2023-02-22T10:44:13;20.55;;;9.55;;
15116;SDS011;7659;51.038;13.786;2023-02-22T10:46:39;15.85;;;8.98;;
15116;SDS011;7659;51.038;13.786;2023-02-22T10:49:06;12.60;;;8.57;;
15116;SDS011;7659;51.038;13.786;2023-02-22T10:51:32;15.13;;;7.55;;
15116;SDS011;7659;51.038;13.786;2023-02-22T10:54:05;11.10;;;7.88;;
15116;SDS011;7659;51.038;13.786;2023-02-22T10:56:48;11.50;;;8.30;;
15116;SDS011;7659;51.038;13.786;2023-02-22T10:59:31;12.35;;;7.97;;
15116;SDS011;7659;51.038;13.786;2023-02-22T11:01:57;12.85;;;7.80;;
15116;SDS011;7659;51.038;13.786;2023-02-22T11:04:23;15.27;;;8.13;;
15116;SDS011;7659;51.038;13.786;2023-02-22T11:09:23;8.95;;;6.75;;
15116;SDS011;7659;51.038;13.786;2023-02-22T11:11:50;13.02;;;6.65;;
15116;SDS011;7659;51.038;13.786;2023-02-22T11:14:31;10.30;;;6.15;;
15116;SDS011;7659;51.038;13.786;2023-02-22T11:16:57;10.98;;;6.38;;
15116;SDS011;7659;51.038;13.786;2023-02-22T11:19:24;10.32;;;6.72;;
15116;SDS011;7659;51.038;13.786;2023-02-22T11:21:51;9.00;;;6.75;;
15116;SDS011;7659;51.038;13.786;2023-02-22T11:24:17;9.00;;;6.50;;
15116;SDS011;7659;51.038;13.786;2023-02-22T11:26:48;12.50;;;6.57;;
15116;SDS011;7659;51.038;13.786;2023-02-22T11:31:51;8.18;;;6.05;;
15116;SDS011;7659;51.038;13.786;2023-02-22T11:36:56;7.82;;;5.90;;
15116;SDS011;7659;51.038;13.786;2023-02-22T11:39:29;9.30;;;5.97;;
15116;SDS011;7659;51.038;13.786;2023-02-22T11:41:58;8.20;;;5.97;;
15116;SDS011;7659;51.038;13.786;2023-02-22T11:44:38;7.57;;;5.50;;
15116;SDS011;7659;51.038;13.786;2023-02-22T11:47:08;8.18;;;5.68;;
15116;SDS011;7659;51.038;13.786;2023-02-22T11:49:36;4.97;;;4.38;;
15116;SDS011;7659;51.038;13.786;2023-02-22T11:52:05;5.43;;;4.40;;
15116;SDS011;7659;51.038;13.786;2023-02-22T12:07:52;4.78;;;4.28;;
15116;SDS011;7659;51.038;13.786;2023-02-22T12:13:18;7.85;;;4.55;;
15116;SDS011;7659;51.038;13.786;2023-02-22T12:18:30;5.85;;;4.38;;
15116;SDS011;7659;51.038;13.786;2023-02-22T12:21:02;5.88;;;4.88;;
15116;SDS011;7659;51.038;13.786;2023-02-22T12:28:34;7.75;;;4.20;;
15116;SDS011;7659;51.038;13.786;2023-02-22T12:33:27;4.63;;;3.80;;
15116;SDS011;7659;51.038;13.786;2023-02-22T12:35:54;5.10;;;3.88;;
15116;SDS011;7659;51.038;13.786;2023-02-22T12:40:55;6.35;;;4.35;;
15116;SDS011;7659;51.038;13.786;2023-02-22T12:43:27;6.15;;;4.40;;
15116;SDS011;7659;51.038;13.786;2023-02-22T12:46:05;7.13;;;4.05;;
15116;SDS011;7659;51.038;13.786;2023-02-22T12:51:22;5.85;;;3.70;;
15116;SDS011;7659;51.038;13.786;2023-02-22T12:54:36;4.00;;;3.60;;
15116;SDS011;7659;51.038;13.786;2023-02-22T12:56:31;5.60;;;3.65;;
15116;SDS011;7659;51.038;13.786;2023-02-22T12:59:08;4.07;;;3.33;;
15116;SDS011;7659;51.038;13.786;2023-02-22T13:01:36;4.95;;;3.30;;
15116;SDS011;7659;51.038;13.786;2023-02-22T13:04:03;3.95;;;2.92;;
15116;SDS011;7659;51.038;13.786;2023-02-22T13:06:37;3.65;;;2.80;;
15116;SDS011;7659;51.038;13.786;2023-02-22T13:09:07;3.83;;;3.15;;
15116;SDS011;7659;51.038;13.786;2023-02-22T13:16:41;5.03;;;4.18;;
15116;SDS011;7659;51.038;13.786;2023-02-22T13:19:15;5.72;;;2.92;;
15116;SDS011;7659;51.038;13.786;2023-02-22T13:29:12;3.30;;;3.00;;
15116;SDS011;7659;51.038;13.786;2023-02-22T13:34:39;4.95;;;3.10;;
15116;SDS011;7659;51.038;13.786;2023-02-22T13:39:40;4.00;;;3.22;;
15116;SDS011;7659;51.038;13.786;2023-02-22T13:50:25;3.60;;;3.00;;
15116;SDS011;7659;51.038;13.786;2023-02-22T13:52:28;4.22;;;2.40;;
15116;SDS011;7659;51.038;13.786;2023-02-22T13:54:55;3.60;;;2.30;;
15116;SDS011;7659;51.038;13.786;2023-02-22T14:00:17;4.15;;;2.85;;
15116;SDS011;7659;51.038;13.786;2023-02-22T14:05:58;3.45;;;2.85;;
15116;SDS011;7659;51.038;13.786;2023-02-22T14:16:20;3.28;;;2.75;;
15116;SDS011;7659;51.038;13.786;2023-02-22T14:18:46;4.82;;;3.53;;
15116;SDS011;7659;51.038;13.786;2023-02-22T14:21:14;5.80;;;3.80;;
15116;SDS011;7659;51.038;13.786;2023-02-22T14:23:44;6.38;;;3.85;;
15116;SDS011;7659;51.038;13.786;2023-02-22T14:26:11;4.32;;;3.30;;
15116;SDS011;7659;51.038;13.786;2023-02-22T14:31:22;4.80;;;3.90;;
15116;SDS011;7659;51.038;13.786;2023-02-22T14:33:58;6.32;;;3.47;;
15116;SDS011;7659;51.038;13.786;2023-02-22T14:36:32;4.18;;;3.15;;
15116;SDS011;7659;51.038;13.786;2023-02-22T14:39:05;4.93;;;3.47;;
15116;SDS011;7659;51.038;13.786;2023-02-22T14:41:34;6.22;;;3.60;;
15116;SDS011;7659;51.038;13.786;2023-02-22T14:44:01;4.15;;;3.20;;
15116;SDS011;7659;51.038;13.786;2023-02-22T14:46:28;5.78;;;3.88;;
15116;SDS011;7659;51.038;13.786;2023-02-22T14:48:58;4.65;;;3.40;;
15116;SDS011;7659;51.038;13.786;2023-02-22T14:51:26;3.88;;;2.90;;
15116;SDS011;7659;51.038;13.786;2023-02-22T14:54:05;4.47;;;3.03;;
15116;SDS011;7659;51.038;13.786;2023-02-22T14:56:35;5.35;;;3.78;;
15116;SDS011;7659;51.038;13.786;2023-02-22T15:01:33;12.40;;;7.68;;
15116;SDS011;7659;51.038;13.786;2023-02-22T15:04:18;11.80;;;7.60;;
15116;SDS011;7659;51.038;13.786;2023-02-22T15:11:38;13.93;;;8.88;;
15116;SDS011;7659;51.038;13.786;2023-02-22T15:14:23;16.08;;;10.50;;
15116;SDS011;7659;51.038;13.786;2023-02-22T15:16:54;21.65;;;11.73;;
15116;SDS011;7659;51.038;13.786;2023-02-22T15:19:24;14.70;;;9.43;;
15116;SDS011;7659;51.038;13.786;2023-02-22T15:21:51;16.90;;;9.02;;
15116;SDS011;7659;51.038;13.786;2023-02-22T15:24:36;11.93;;;8.10;;
15116;SDS011;7659;51.038;13.786;2023-02-22T15:27:14;12.07;;;8.05;;
15116;SDS011;7659;51.038;13.786;2023-02-22T15:29:42;12.32;;;7.50;;
15116;SDS011;7659;51.038;13.786;2023-02-22T15:34:51;15.20;;;9.25;;
15116;SDS011;7659;51.038;13.786;2023-02-22T15:37:22;18.05;;;9.35;;
15116;SDS011;7659;51.038;13.786;2023-02-22T15:39:52;13.10;;;9.65;;
15116;SDS011;7659;51.038;13.786;2023-02-22T15:42:24;15.48;;;8.77;;
15116;SDS011;7659;51.038;13.786;2023-02-22T15:44:50;12.75;;;8.88;;
15116;SDS011;7659;51.038;13.786;2023-02-22T15:47:20;14.27;;;9.13;;
15116;SDS011;7659;51.038;13.786;2023-02-22T15:50:31;15.18;;;8.90;;
15116;SDS011;7659;51.038;13.786;2023-02-22T15:52:32;14.57;;;9.18;;
15116;SDS011;7659;51.038;13.786;2023-02-22T15:54:58;13.52;;;9.05;;
15116;SDS011;7659;51.038;13.786;2023-02-22T15:57:23;12.95;;;8.52;;
15116;SDS011;7659;51.038;13.786;2023-02-22T15:59:54;14.50;;;9.07;;
15116;SDS011;7659;51.038;13.786;2023-02-22T16:04:59;14.70;;;8.90;;
15116;SDS011;7659;51.038;13.786;2023-02-22T16:07:25;14.85;;;9.20;;
15116;SDS011;7659;51.038;13.786;2023-02-22T16:09:51;15.45;;;10.13;;
15116;SDS011;7659;51.038;13.786;2023-02-22T16:14:45;13.15;;;8.93;;
15116;SDS011;7659;51.038;13.786;2023-02-22T16:22:42;13.77;;;9.25;;
15116;SDS011;7659;51.038;13.786;2023-02-22T16:25:21;13.25;;;9.77;;
15116;SDS011;7659;51.038;13.786;2023-02-22T16:32:46;15.10;;;9.75;;
15116;SDS011;7659;51.038;13.786;2023-02-22T16:35:12;17.83;;;9.30;;
15116;SDS011;7659;51.038;13.786;2023-02-22T16:37:49;16.40;;;10.40;;
15116;SDS011;7659;51.038;13.786;2023-02-22T16:42:46;18.27;;;10.38;;
15116;SDS011;7659;51.038;13.786;2023-02-22T16:45:15;16.13;;;9.05;;
15116;SDS011;7659;51.038;13.786;2023-02-22T16:47:40;17.38;;;11.02;;
15116;SDS011;7659;51.038;13.786;2023-02-22T16:50:06;18.30;;;11.55;;
15116;SDS011;7659;51.038;13.786;2023-02-22T16:52:32;13.98;;;10.57;;
15116;SDS011;7659;51.038;13.786;2023-02-22T16:54:57;17.70;;;11.68;;
15116;SDS011;7659;51.038;13.786;2023-02-22T16:57:23;18.67;;;12.30;;
15116;SDS011;7659;51.038;13.786;2023-02-22T16:59:50;19.75;;;11.82;;
15116;SDS011;7659;51.038;13.786;2023-02-22T17:02:17;19.05;;;11.50;;
15116;SDS011;7659;51.038;13.786;2023-02-22T17:04:43;19.80;;;12.55;;
15116;SDS011;7659;51.038;13.786;2023-02-22T17:07:22;17.15;;;12.25;;
15116;SDS011;7659;51.038;13.786;2023-02-22T17:09:48;19.50;;;12.52;;
15116;SDS011;7659;51.038;13.786;2023-02-22T17:12:15;23.27;;;11.45;;
15116;SDS011;7659;51.038;13.786;2023-02-22T17:14:41;19.10;;;11.55;;
15116;SDS011;7659;51.038;13.786;2023-02-22T17:17:09;17.23;;;11.57;;
15116;SDS011;7659;51.038;13.786;2023-02-22T17:19:36;20.85;;;11.15;;
15116;SDS011;7659;51.038;13.786;2023-02-22T17:22:01;16.42;;;11.07;;
15116;SDS011;7659;51.038;13.786;2023-02-22T17:24:30;17.38;;;11.00;;
15116;SDS011;7659;51.038;13.786;2023-02-22T17:26:58;16.45;;;10.77;;